PENO2: Grand Lake O' The Cherokees, Pensacola Dm

Data processed at Sun Apr 30 2017 21:32


All information presented herein is the property of the government of the United States of America and may be revised or deleted at any time without prior notice.
Dissemination of this information without the expressed written consent of the Public Affairs Office, Tulsa District U.S. Army Corps of Engineers is strictly prohibited.
These data are gathered electronically and, as presented, have not undergone any form of quality control. These data are not guaranteed to be valid or correct.
Go to home page.
Go to station list.
Go to station map.

Upstream stations:

Downstream station:
Previous Day
Next Day
Current Day
    
SHEF ID:       PENO2     Lake O' the Cherokees at Langley
STATION TYPE:  RESERVOIR

               PRECIP ELEVATION   STORAGE    INFLOW   RELEASE  AIR-TEMP  WIND-DIRWIND-SPEED REL-HUMID SOLAR-RAD   VOLTAGE  BAT-LOAD
                   in        ft     ac-ft       cfs       cfs         F       deg       mph         %      W/m2      volt      volt
              Ccp-Rev   Ccp-Rev   Ccp-Rev  Regi-Rev  Regi-Rev   Ccp-Rev   Ccp-Rev   Ccp-Rev   Ccp-Rev   Ccp-Rev   Ccp-Rev   Ccp-Rev
(US/Central)
04/30 00:00      0.09    749.02   1697694    236422     41056     60.75     17.55      5.24     97.85      0.00     12.90     12.65
04/30 01:00      0.07    749.31   1712107    229206     41936     61.57     24.87      2.67     98.92      0.00     12.87     12.65
04/30 02:00      0.00    749.64   1728508    215164     42656     63.50     21.43      2.55     98.88      0.00     12.86     12.65
04/30 03:00      0.00    749.92   1742424    207916     43490     63.27     75.40      2.65     97.35      0.00     12.84     12.57
04/30 04:00      0.01    750.13   1753108    222341     44095     57.40    173.94      7.39     98.59      0.00     12.83     12.57
04/30 05:00      0.00    750.36   1764976    206654     53290     56.32    166.81      3.99     98.65      0.00     12.81     12.57
04/30 06:00      0.00    750.72   1783552    209996     63691     55.67    169.54      4.49     97.12      0.00     12.80     12.57
04/30 07:00      0.00    750.85   1790260    213274     81504     55.04    178.51      6.21     95.49      0.00     12.78     12.57
04/30 08:00      0.00    751.08   1802264    219142     83334     53.19    170.09      7.76     94.41      6.00     12.77     12.49
04/30 09:00      0.01    751.23   1810259    199207     93026     52.47    166.15      6.14     89.37     31.77     12.75     12.49
04/30 10:00      0.00    751.42   1820386    203354    103692     52.83    161.11      4.88     83.59     71.13     12.73     12.49
04/30 11:00      0.00    751.55   1827315    191933    104945     54.23    165.38      5.80     78.35    255.46     12.71     12.49
04/30 12:00      0.00    751.67   1833711    194848    106016     54.34    165.39      8.19     68.66    183.11     12.71     12.41
04/30 13:00      0.00    751.77   1839041    184268    106983     54.18    161.43      8.67     61.74    381.51     12.69     12.41
04/30 14:00      0.00    751.92   1847036    183334    107601     54.50    162.06      9.90     54.43    674.39     12.69     12.41
04/30 15:00      0.00    752.02   1852400    195537    108428     53.37    166.06      8.26     56.53    270.43     12.68     12.41
04/30 16:00      0.00    752.13   1858450    194303    110910     54.01    161.54      7.23     55.20    159.02     12.68     12.41
04/30 17:00      0.00    752.33   1869450    179898    111321     54.19    158.30      5.74     53.34     49.01     12.67     12.41
04/30 18:00      0.01    752.41   1873850    178293    112067     53.28    166.71      7.46     56.56     60.28     12.67     12.41
04/30 19:00      0.00    752.44   1875500    161333    112348     50.90    164.20      6.72     67.12     48.81     12.66     12.41
04/30 20:00      0.00    752.56   1882100      -901      -901     52.18    168.37      9.22     57.84      8.32     12.66     12.41
04/30 21:00      0.00    752.64   1886500      ----      ----     49.95    173.12      8.93     68.62      0.00     12.65     12.41
04/30 22:00      ----      ----      ----      ----      ----      ----      ----      ----      ----      ----      ----      ----
04/30 23:00      ----      ----      ----      ----      ----      ----      ----      ----      ----      ----      ----      ----